createdAt,value
2022-10-17T00:02:10.398Z,10.64
2022-10-17T00:04:36.986Z,10.70
2022-10-17T00:07:03.584Z,10.49
2022-10-17T00:09:30.143Z,10.61
2022-10-17T00:11:56.735Z,10.57
2022-10-17T00:14:23.316Z,10.46
2022-10-17T00:16:49.907Z,10.35
2022-10-17T00:19:16.592Z,10.76
2022-10-17T00:21:43.162Z,10.44
2022-10-17T00:24:09.756Z,10.54
2022-10-17T00:26:36.399Z,10.34
2022-10-17T00:29:03.618Z,10.35
2022-10-17T00:31:30.231Z,10.51
2022-10-17T00:33:56.863Z,10.35
2022-10-17T00:36:25.764Z,10.41
2022-10-17T00:38:56.828Z,10.25
2022-10-17T00:41:27.230Z,10.28
2022-10-17T00:44:30.864Z,10.39
2022-10-17T00:47:02.455Z,10.21
2022-10-17T00:49:33.402Z,10.09
2022-10-17T00:52:22.262Z,10.13
2022-10-17T00:54:55.066Z,10.14
2022-10-17T00:57:22.200Z,10.03
2022-10-17T00:59:52.843Z,9.98
2022-10-17T01:02:21.434Z,9.89
2022-10-17T01:04:52.397Z,9.75
2022-10-17T01:07:19.022Z,9.63
2022-10-17T01:09:47.149Z,9.67
2022-10-17T01:12:19.779Z,9.79
2022-10-17T01:14:55.447Z,9.93
2022-10-17T01:17:40.257Z,9.87
2022-10-17T01:20:47.552Z,9.86
2022-10-17T01:23:51.729Z,9.99
2022-10-17T01:26:31.259Z,9.76
2022-10-17T01:29:28.942Z,9.78
2022-10-17T01:32:00.306Z,9.92
2022-10-17T01:34:46.983Z,10.02
2022-10-17T01:37:21.154Z,10.04
2022-10-17T01:40:00.633Z,9.92
2022-10-17T01:42:37.712Z,9.86
2022-10-17T01:45:12.754Z,9.87
2022-10-17T01:47:43.212Z,10.01
2022-10-17T01:50:18.544Z,9.68
2022-10-17T01:52:59.970Z,9.65
2022-10-17T01:55:33.517Z,9.72
2022-10-17T01:58:10.704Z,9.77
2022-10-17T02:00:39.575Z,9.67
2022-10-17T02:03:12.405Z,9.85
2022-10-17T02:05:40.633Z,9.66
2022-10-17T02:08:07.557Z,9.71
2022-10-17T02:10:45.999Z,9.74
2022-10-17T02:13:12.574Z,9.71
2022-10-17T02:15:51.256Z,9.69
2022-10-17T02:18:31.012Z,9.70
2022-10-17T02:21:25.049Z,9.64
2022-10-17T02:23:53.287Z,9.51
2022-10-17T02:26:28.626Z,9.55
2022-10-17T02:29:19.202Z,9.49
2022-10-17T02:32:13.895Z,9.45
2022-10-17T02:34:49.001Z,9.42
2022-10-17T02:37:20.208Z,9.48
2022-10-17T02:39:48.465Z,9.48
2022-10-17T02:42:16.407Z,9.41
2022-10-17T02:44:45.301Z,9.40
2022-10-17T02:47:20.584Z,9.47
2022-10-17T02:49:56.085Z,9.47
2022-10-17T02:52:32.744Z,9.45
2022-10-17T02:55:11.558Z,9.49
2022-10-17T02:57:46.972Z,9.43
2022-10-17T03:00:16.166Z,9.32
2022-10-17T03:02:45.327Z,9.34
2022-10-17T03:05:18.586Z,9.39
2022-10-17T03:07:45.346Z,9.42
2022-10-17T03:10:11.935Z,9.47
2022-10-17T03:12:38.561Z,9.26
2022-10-17T03:15:05.813Z,9.18
2022-10-17T03:17:32.471Z,9.17
2022-10-17T03:19:59.103Z,9.19
2022-10-17T03:22:25.663Z,9.63
2022-10-17T03:24:52.277Z,9.52
2022-10-17T03:27:18.932Z,9.11
2022-10-17T03:29:45.508Z,9.10
2022-10-17T03:32:12.093Z,9.23
2022-10-17T03:34:38.676Z,9.15
2022-10-17T03:37:05.328Z,9.26
2022-10-17T03:39:31.987Z,9.21
2022-10-17T03:41:58.562Z,9.55
2022-10-17T03:44:25.134Z,8.81
2022-10-17T03:46:51.765Z,9.11
2022-10-17T03:49:18.332Z,9.02
2022-10-17T03:51:44.902Z,9.08
2022-10-17T03:54:11.512Z,9.08
2022-10-17T03:56:38.092Z,9.04
2022-10-17T03:59:05.158Z,8.94
2022-10-17T04:01:31.796Z,9.02
2022-10-17T04:03:58.523Z,9.02
2022-10-17T04:06:25.194Z,9.05
2022-10-17T04:08:51.771Z,9.37
2022-10-17T04:11:21.016Z,8.93
2022-10-17T04:13:52.339Z,8.90
2022-10-17T04:16:18.912Z,8.94
2022-10-17T04:18:45.546Z,9.03
2022-10-17T04:21:13.188Z,9.07
2022-10-17T04:23:40.045Z,9.14
2022-10-17T04:26:07.195Z,9.11
2022-10-17T04:28:34.489Z,9.45
2022-10-17T04:31:04.389Z,9.70
2022-10-17T04:33:32.231Z,9.58
2022-10-17T04:36:00.517Z,9.31
2022-10-17T04:38:28.897Z,9.36
2022-10-17T04:41:02.212Z,9.31
2022-10-17T04:43:34.496Z,9.06
2022-10-17T04:46:03.755Z,9.35
2022-10-17T04:48:30.710Z,9.21
2022-10-17T04:51:03.282Z,9.09
2022-10-17T04:53:35.250Z,8.82
2022-10-17T04:56:07.095Z,8.66
2022-10-17T04:58:33.711Z,9.07
2022-10-17T05:01:05.115Z,9.21
2022-10-17T05:03:31.800Z,8.75
2022-10-17T05:05:58.403Z,8.67
2022-10-17T05:08:24.995Z,8.74
2022-10-17T05:10:51.596Z,8.71
2022-10-17T05:13:18.280Z,8.69
2022-10-17T05:15:44.871Z,8.67
2022-10-17T05:18:11.514Z,8.70
2022-10-17T05:20:38.466Z,8.70
2022-10-17T05:23:05.047Z,8.70
2022-10-17T05:25:31.681Z,8.72
2022-10-17T05:27:58.268Z,8.59
2022-10-17T05:30:24.880Z,8.62
2022-10-17T05:32:55.073Z,8.58
2022-10-17T05:35:23.446Z,8.62
2022-10-17T05:37:50.010Z,8.76
2022-10-17T05:40:16.765Z,8.73
2022-10-17T05:42:47.646Z,8.74
2022-10-17T05:45:15.166Z,8.81
2022-10-17T05:47:41.779Z,8.70
2022-10-17T05:50:08.882Z,8.64
2022-10-17T05:52:36.450Z,8.63
2022-10-17T05:55:04.470Z,8.59
2022-10-17T05:57:31.119Z,8.58
2022-10-17T05:59:57.719Z,8.53
2022-10-17T06:02:24.389Z,8.58
2022-10-17T06:04:51.119Z,8.52
2022-10-17T06:07:17.823Z,8.54
2022-10-17T06:12:15.993Z,8.64
2022-10-17T06:14:42.636Z,8.56
2022-10-17T06:17:14.831Z,8.67
2022-10-17T06:19:42.595Z,8.63
2022-10-17T06:22:09.221Z,8.53
2022-10-17T06:24:35.872Z,8.48
2022-10-17T06:27:02.446Z,8.51
2022-10-17T06:29:29.098Z,8.60
2022-10-17T06:31:55.991Z,8.72
2022-10-17T06:34:22.768Z,8.64
2022-10-17T06:36:49.422Z,8.68
2022-10-17T06:39:16.072Z,8.70
2022-10-17T06:41:42.919Z,8.73
2022-10-17T06:44:09.556Z,8.70
2022-10-17T06:46:36.683Z,8.72
2022-10-17T06:49:06.362Z,8.87
2022-10-17T06:51:36.750Z,8.86
2022-10-17T06:54:06.359Z,8.88
2022-10-17T06:56:32.988Z,9.20
2022-10-17T06:58:59.564Z,9.40
2022-10-17T07:01:26.281Z,9.81
2022-10-17T07:03:53.005Z,10.11
2022-10-17T07:06:19.732Z,10.10
2022-10-17T07:08:46.396Z,10.05
2022-10-17T07:11:16.010Z,10.22
2022-10-17T07:13:43.457Z,9.84
2022-10-17T07:16:10.398Z,10.21
2022-10-17T07:18:37.506Z,10.35
2022-10-17T07:21:05.128Z,10.70
2022-10-17T07:23:31.741Z,10.62
2022-10-17T07:26:03.424Z,10.43
2022-10-17T07:28:38.539Z,10.66
2022-10-17T07:31:12.714Z,10.44
2022-10-17T07:33:39.547Z,11.07
2022-10-17T07:36:06.708Z,11.29
2022-10-17T07:38:33.873Z,11.47
2022-10-17T07:41:02.348Z,11.53
2022-10-17T07:43:32.741Z,11.79
2022-10-17T07:46:01.582Z,12.32
2022-10-17T07:48:28.755Z,12.14
2022-10-17T07:50:55.386Z,12.53
2022-10-17T07:53:22.272Z,12.52
2022-10-17T07:55:48.922Z,12.36
2022-10-17T07:58:15.807Z,12.17
2022-10-17T08:00:42.464Z,12.13
2022-10-17T08:03:10.842Z,12.43
2022-10-17T08:05:37.425Z,12.37
2022-10-17T08:08:04.166Z,13.00
2022-10-17T08:10:30.743Z,13.53
2022-10-17T08:12:58.331Z,13.58
2022-10-17T08:15:29.373Z,13.02
2022-10-17T08:17:59.119Z,13.46
2022-10-17T08:20:25.939Z,13.68
2022-10-17T08:22:55.887Z,13.46
2022-10-17T08:25:23.217Z,13.30
2022-10-17T08:27:49.962Z,13.48
2022-10-17T08:30:18.038Z,13.26
2022-10-17T08:32:44.781Z,13.62
2022-10-17T08:35:11.365Z,13.87
2022-10-17T08:37:38.072Z,13.68
2022-10-17T08:40:05.229Z,14.08
2022-10-17T08:43:25.146Z,14.53
2022-10-17T08:45:59.764Z,13.91
2022-10-17T08:48:30.285Z,14.17
2022-10-17T08:51:02.582Z,14.78
2022-10-17T08:53:47.959Z,14.60
2022-10-17T08:56:44.600Z,14.59
2022-10-17T08:59:21.876Z,14.76
2022-10-17T09:02:02.410Z,15.06
2022-10-17T09:04:37.928Z,14.80
2022-10-17T09:07:25.200Z,15.35
2022-10-17T09:10:27.121Z,15.40
2022-10-17T09:13:33.788Z,15.45
2022-10-17T09:16:11.449Z,15.43
2022-10-17T09:18:43.180Z,15.14
2022-10-17T09:21:47.303Z,15.67
2022-10-17T09:24:54.308Z,15.91
2022-10-17T09:27:44.674Z,15.85
2022-10-17T09:30:46.217Z,16.10
2022-10-17T09:33:34.272Z,16.25
2022-10-17T09:36:06.065Z,16.43
2022-10-17T09:38:44.887Z,16.65
2022-10-17T09:44:30.362Z,16.65
2022-10-17T09:47:21.464Z,16.85
2022-10-17T09:49:48.824Z,16.90
2022-10-17T09:52:19.097Z,16.80
2022-10-17T09:54:47.271Z,16.96
2022-10-17T09:57:15.621Z,17.24
2022-10-17T09:59:45.734Z,17.35
2022-10-17T10:02:12.300Z,17.27
2022-10-17T10:05:10.561Z,17.53
2022-10-17T10:07:39.078Z,17.55
2022-10-17T10:10:28.113Z,17.27
2022-10-17T10:13:07.323Z,17.64
2022-10-17T10:15:40.103Z,17.62
2022-10-17T10:18:25.108Z,17.23
2022-10-17T10:21:16.712Z,17.49
2022-10-17T10:23:45.476Z,17.62
2022-10-17T10:26:22.152Z,17.73
2022-10-17T10:28:58.988Z,18.12
2022-10-17T10:31:39.934Z,18.39
2022-10-17T10:34:22.939Z,18.37
2022-10-17T10:37:01.227Z,18.24
2022-10-17T10:39:52.315Z,18.34
2022-10-17T10:42:26.431Z,18.28
2022-10-17T10:44:55.193Z,18.45
2022-10-17T10:47:27.921Z,18.77
2022-10-17T10:50:19.513Z,18.71
2022-10-17T10:53:32.911Z,19.02
2022-10-17T10:56:13.726Z,19.20
2022-10-17T10:58:49.351Z,18.90
2022-10-17T11:01:53.384Z,19.19
2022-10-17T11:04:40.999Z,19.07
2022-10-17T11:07:24.389Z,19.01
2022-10-17T11:10:08.058Z,19.30
2022-10-17T11:12:54.817Z,19.53
2022-10-17T11:15:40.591Z,19.48
2022-10-17T11:18:13.322Z,19.45
2022-10-17T11:21:06.291Z,19.08
2022-10-17T11:23:56.588Z,19.62
2022-10-17T11:26:30.011Z,19.31
2022-10-17T11:28:58.641Z,19.75
2022-10-17T11:31:34.895Z,19.84
2022-10-17T11:34:17.099Z,19.62
2022-10-17T11:36:45.639Z,19.76
2022-10-17T11:39:17.659Z,19.93
2022-10-17T11:41:52.588Z,20.25
2022-10-17T11:44:36.302Z,20.32
2022-10-17T11:47:16.532Z,20.24
2022-10-17T11:49:52.288Z,20.20
2022-10-17T11:52:56.092Z,20.08
2022-10-17T11:55:27.223Z,20.17
2022-10-17T11:58:18.581Z,20.23
2022-10-17T12:01:06.792Z,20.40
2022-10-17T12:04:04.423Z,20.46
2022-10-17T12:06:52.675Z,20.17
2022-10-17T12:09:40.559Z,20.12
2022-10-17T12:12:07.940Z,20.17
2022-10-17T12:14:48.207Z,20.50
2022-10-17T12:17:30.349Z,20.68
2022-10-17T12:20:22.057Z,20.61
2022-10-17T12:22:50.323Z,20.67
2022-10-17T12:25:19.446Z,20.89
2022-10-17T12:27:48.734Z,20.89
2022-10-17T12:30:24.249Z,20.92
2022-10-17T12:33:05.556Z,21.02
2022-10-17T12:35:35.945Z,21.05
2022-10-17T12:38:26.433Z,21.16
2022-10-17T12:40:55.497Z,21.04
2022-10-17T12:43:28.216Z,20.90
2022-10-17T12:46:01.010Z,20.98
2022-10-17T12:48:36.656Z,20.74
2022-10-17T12:51:37.832Z,20.58
2022-10-17T12:54:08.840Z,20.61
2022-10-17T12:56:49.995Z,20.68
2022-10-17T12:59:28.389Z,20.92
2022-10-17T13:01:59.129Z,21.15
2022-10-17T13:04:27.630Z,21.38
2022-10-17T13:06:59.303Z,21.64
2022-10-17T13:09:30.250Z,21.72
2022-10-17T13:12:00.179Z,21.91
2022-10-17T13:14:27.652Z,21.36
2022-10-17T13:17:00.336Z,21.53
2022-10-17T13:19:41.432Z,20.90
2022-10-17T13:22:23.832Z,21.27
2022-10-17T13:24:52.247Z,21.45
2022-10-17T13:27:28.092Z,21.37
2022-10-17T13:29:56.753Z,21.51
2022-10-17T13:32:24.954Z,21.22
2022-10-17T13:35:06.895Z,21.12
2022-10-17T13:37:35.304Z,21.46
2022-10-17T13:40:17.513Z,21.67
2022-10-17T13:42:51.870Z,21.72
2022-10-17T13:45:37.244Z,21.80
2022-10-17T13:48:07.496Z,21.91
2022-10-17T13:50:44.214Z,21.70
2022-10-17T13:53:26.634Z,21.83
2022-10-17T13:59:25.551Z,21.56
2022-10-17T14:01:53.822Z,21.57
2022-10-17T14:04:20.800Z,21.54
2022-10-17T14:06:49.680Z,21.66
2022-10-17T14:09:23.165Z,21.20
2022-10-17T14:12:02.364Z,21.29
2022-10-17T14:14:32.165Z,21.74
2022-10-17T14:17:13.802Z,21.62
2022-10-17T14:19:48.368Z,21.35
2022-10-17T14:22:27.282Z,21.10
2022-10-17T14:24:55.222Z,21.41
2022-10-17T14:27:32.452Z,21.45
2022-10-17T14:30:02.611Z,21.39
2022-10-17T14:35:24.349Z,21.64
2022-10-17T14:37:59.192Z,21.35
2022-10-17T14:40:28.233Z,21.43
2022-10-17T14:42:57.701Z,21.48
2022-10-17T14:45:31.887Z,21.02
2022-10-17T14:48:14.331Z,20.97
2022-10-17T14:50:41.313Z,20.80
2022-10-17T14:53:10.888Z,20.57
2022-10-17T14:55:39.888Z,20.48
2022-10-17T14:58:18.065Z,20.08
2022-10-17T15:00:44.658Z,20.01
2022-10-17T15:03:11.306Z,19.82
2022-10-17T15:05:37.932Z,19.89
2022-10-17T15:08:09.222Z,19.79
2022-10-17T15:10:37.173Z,19.55
2022-10-17T15:15:52.247Z,19.58
2022-10-17T15:18:19.534Z,19.57
2022-10-17T15:20:46.091Z,19.35
2022-10-17T15:23:12.720Z,19.15
2022-10-17T15:25:39.796Z,18.86
2022-10-17T15:28:06.364Z,18.71
2022-10-17T15:30:35.996Z,18.74
2022-10-17T15:33:02.741Z,18.79
2022-10-17T15:35:29.471Z,18.79
2022-10-17T15:37:56.239Z,18.37
2022-10-17T15:40:28.440Z,18.40
2022-10-17T15:42:56.257Z,18.52
2022-10-17T15:45:23.986Z,18.35
2022-10-17T15:48:04.804Z,18.02
2022-10-17T15:50:31.524Z,18.09
2022-10-17T15:52:59.316Z,18.07
2022-10-17T15:55:26.268Z,17.93
2022-10-17T15:57:52.833Z,17.75
2022-10-17T16:00:24.102Z,17.37
2022-10-17T16:02:51.267Z,17.37
2022-10-17T16:05:24.006Z,17.66
2022-10-17T16:07:50.580Z,17.50
2022-10-17T16:10:18.045Z,17.44
2022-10-17T16:12:45.361Z,17.17
2022-10-17T16:15:25.906Z,17.17
2022-10-17T16:17:54.720Z,17.12
2022-10-17T16:20:22.250Z,16.94
2022-10-17T16:22:49.697Z,16.71
2022-10-17T16:25:22.128Z,16.38
2022-10-17T16:27:50.832Z,16.27
2022-10-17T16:30:18.375Z,15.97
2022-10-17T16:32:45.233Z,15.99
2022-10-17T16:35:18.490Z,15.99
2022-10-17T16:37:45.127Z,15.95
2022-10-17T16:40:11.906Z,15.83
2022-10-17T16:42:38.553Z,15.77
2022-10-17T16:45:05.612Z,15.70
2022-10-17T16:47:32.191Z,15.55
2022-10-17T16:49:58.770Z,15.58
2022-10-17T16:52:25.746Z,15.52
2022-10-17T16:54:52.410Z,15.57
2022-10-17T16:57:19.032Z,15.43
2022-10-17T16:59:45.612Z,15.43
2022-10-17T17:02:12.401Z,15.61
2022-10-17T17:04:39.015Z,15.49
2022-10-17T17:07:05.609Z,15.29
2022-10-17T17:09:32.290Z,15.12
2022-10-17T17:11:58.906Z,15.15
2022-10-17T17:14:25.635Z,15.29
2022-10-17T17:16:52.219Z,15.12
2022-10-17T17:19:18.824Z,15.03
2022-10-17T17:21:45.412Z,14.92
2022-10-17T17:24:11.990Z,15.04
2022-10-17T17:26:38.667Z,14.99
2022-10-17T17:29:05.442Z,14.98
2022-10-17T17:31:33.807Z,15.07
2022-10-17T17:34:00.749Z,15.00
2022-10-17T17:36:30.250Z,14.90
2022-10-17T17:39:00.817Z,14.64
2022-10-17T17:41:28.276Z,14.67
2022-10-17T17:43:55.073Z,14.67
2022-10-17T17:46:23.111Z,14.62
2022-10-17T17:48:51.131Z,14.49
2022-10-17T17:51:24.246Z,14.52
2022-10-17T17:53:54.283Z,14.54
2022-10-17T17:56:26.318Z,14.63
2022-10-17T17:58:55.882Z,14.60
2022-10-17T18:01:24.905Z,14.52
2022-10-17T18:03:53.577Z,14.44
2022-10-17T18:06:21.757Z,14.48
2022-10-17T18:08:52.789Z,14.55
2022-10-17T18:11:21.971Z,14.50
2022-10-17T18:13:54.178Z,14.36
2022-10-17T18:16:20.869Z,14.21
2022-10-17T18:18:47.459Z,14.13
2022-10-17T18:21:14.357Z,14.19
2022-10-17T18:23:42.833Z,14.12
2022-10-17T18:26:10.292Z,14.05
2022-10-17T18:28:38.851Z,14.07
2022-10-17T18:31:09.318Z,14.04
2022-10-17T18:33:35.893Z,13.97
2022-10-17T18:36:08.555Z,13.73
2022-10-17T18:38:35.527Z,13.76
2022-10-17T18:41:06.894Z,13.61
2022-10-17T18:43:36.198Z,13.59
2022-10-17T18:46:14.011Z,13.59
2022-10-17T18:48:43.168Z,13.45
2022-10-17T18:51:10.740Z,13.43
2022-10-17T18:53:42.884Z,13.42
2022-10-17T18:56:10.268Z,13.53
2022-10-17T18:58:37.565Z,13.44
2022-10-17T19:01:14.123Z,13.27
2022-10-17T19:03:41.838Z,13.20
2022-10-17T19:06:12.894Z,13.17
2022-10-17T19:08:43.850Z,13.13
2022-10-17T19:11:17.978Z,13.12
2022-10-17T19:16:20.533Z,13.20
2022-10-17T19:18:51.946Z,13.16
2022-10-17T19:21:21.856Z,13.07
2022-10-17T19:23:58.179Z,13.00
2022-10-17T19:26:26.906Z,12.99
2022-10-17T19:28:53.604Z,12.96
2022-10-17T19:31:26.485Z,12.90
2022-10-17T19:33:53.448Z,12.91
2022-10-17T19:36:21.985Z,12.93
2022-10-17T19:38:48.677Z,12.91
2022-10-17T19:41:16.406Z,12.70
2022-10-17T19:43:44.151Z,12.58
2022-10-17T19:46:13.843Z,12.64
2022-10-17T19:48:41.191Z,12.57
2022-10-17T19:51:10.288Z,12.48
2022-10-17T19:53:36.910Z,12.53
2022-10-17T19:56:04.530Z,12.49
2022-10-17T19:58:33.480Z,12.61
2022-10-17T20:01:00.858Z,12.45
2022-10-17T20:03:28.635Z,12.39
2022-10-17T20:05:55.328Z,12.38
2022-10-17T20:08:21.991Z,12.39
2022-10-17T20:10:48.619Z,12.24
2022-10-17T20:13:15.200Z,12.25
2022-10-17T20:15:41.838Z,12.19
2022-10-17T20:18:08.998Z,12.18
2022-10-17T20:20:36.778Z,12.19
2022-10-17T20:23:04.128Z,12.20
2022-10-17T20:25:31.107Z,12.17
2022-10-17T20:27:58.458Z,12.26
2022-10-17T20:30:25.044Z,12.34
2022-10-17T20:32:55.254Z,12.26
2022-10-17T20:35:22.831Z,12.31
2022-10-17T20:37:49.629Z,12.36
2022-10-17T20:40:34.281Z,12.32
2022-10-17T20:43:03.798Z,12.21
2022-10-17T20:45:45.158Z,12.26
2022-10-17T20:48:17.504Z,12.09
2022-10-17T20:50:44.498Z,12.06
2022-10-17T20:56:13.594Z,12.00
2022-10-17T20:58:40.188Z,12.17
2022-10-17T21:01:08.720Z,11.98
2022-10-17T21:03:42.391Z,11.99
2022-10-17T21:06:12.978Z,11.86
2022-10-17T21:08:39.581Z,11.75
2022-10-17T21:11:11.266Z,11.73
2022-10-17T21:13:38.114Z,11.81
2022-10-17T21:16:10.584Z,11.86
2022-10-17T21:18:37.699Z,11.77
2022-10-17T21:21:27.517Z,11.79
2022-10-17T21:23:58.128Z,11.71
2022-10-17T21:26:24.958Z,11.63
2022-10-17T21:28:51.826Z,11.57
2022-10-17T21:31:24.121Z,11.60
2022-10-17T21:33:54.242Z,11.71
2022-10-17T21:36:21.867Z,11.81
2022-10-17T21:38:50.807Z,11.96
2022-10-17T21:41:19.635Z,11.82
2022-10-17T21:43:47.280Z,11.76
2022-10-17T21:46:16.971Z,11.71
2022-10-17T21:48:44.581Z,11.77
2022-10-17T21:51:13.386Z,11.84
2022-10-17T21:53:40.688Z,11.85
2022-10-17T21:56:10.305Z,11.76
2022-10-17T21:58:37.331Z,11.82
2022-10-17T22:01:09.872Z,11.90
2022-10-17T22:03:42.654Z,11.41
2022-10-17T22:09:01.936Z,11.60
2022-10-17T22:11:32.169Z,11.67
2022-10-17T22:14:01.481Z,11.62
2022-10-17T22:16:28.792Z,11.72
2022-10-17T22:19:03.198Z,11.64
2022-10-17T22:21:34.462Z,11.68
2022-10-17T22:24:03.092Z,11.68
2022-10-17T22:26:30.982Z,11.45
2022-10-17T22:28:58.237Z,11.45
2022-10-17T22:31:24.921Z,11.23
2022-10-17T22:33:51.493Z,11.20
2022-10-17T22:36:18.562Z,11.37
2022-10-17T22:38:45.210Z,11.54
2022-10-17T22:41:11.809Z,11.45
2022-10-17T22:43:38.395Z,11.22
2022-10-17T22:46:06.644Z,11.18
2022-10-17T22:48:34.239Z,11.32
2022-10-17T22:51:01.991Z,11.18
2022-10-17T22:53:28.916Z,11.39
2022-10-17T22:56:10.512Z,11.52
2022-10-17T22:58:37.103Z,11.17
2022-10-17T23:01:05.355Z,11.15
2022-10-17T23:03:32.855Z,11.03
2022-10-17T23:05:59.473Z,11.18
2022-10-17T23:08:26.697Z,11.29
2022-10-17T23:10:53.972Z,11.20
2022-10-17T23:13:20.638Z,10.93
2022-10-17T23:15:51.120Z,11.05
2022-10-17T23:18:17.753Z,10.99
2022-10-17T23:20:44.377Z,11.08
2022-10-17T23:23:11.355Z,10.86
2022-10-17T23:25:37.953Z,11.05
2022-10-17T23:28:04.537Z,10.22
2022-10-17T23:30:32.044Z,10.61
2022-10-17T23:32:58.621Z,10.56
2022-10-17T23:35:25.413Z,10.51
2022-10-17T23:37:51.978Z,10.56
2022-10-17T23:40:18.674Z,10.57
2022-10-17T23:42:46.837Z,10.46
2022-10-17T23:45:13.454Z,10.60
2022-10-17T23:47:40.045Z,10.96
2022-10-17T23:50:07.108Z,10.98
2022-10-17T23:52:33.691Z,10.81
2022-10-17T23:55:00.433Z,10.76
2022-10-17T23:57:27.042Z,10.66
2022-10-17T23:59:53.619Z,10.66
